sensor_id;sensor_type;location;lat;lon;timestamp;P1;durP1;ratioP1;P2;durP2;ratioP2
55270;SDS011;41132;47.162;9.470;2023-08-06T00:01:11;5.30;;;2.78;;
55270;SDS011;41132;47.162;9.470;2023-08-06T00:03:37;5.00;;;2.30;;
55270;SDS011;41132;47.162;9.470;2023-08-06T00:06:04;5.35;;;2.50;;
55270;SDS011;41132;47.162;9.470;2023-08-06T00:08:30;5.93;;;2.70;;
55270;SDS011;41132;47.162;9.470;2023-08-06T00:10:55;5.10;;;2.40;;
55270;SDS011;41132;47.162;9.470;2023-08-06T00:13:20;4.93;;;2.40;;
55270;SDS011;41132;47.162;9.470;2023-08-06T00:15:46;4.57;;;1.88;;
55270;SDS011;41132;47.162;9.470;2023-08-06T00:18:11;5.53;;;2.42;;
55270;SDS011;41132;47.162;9.470;2023-08-06T00:20:40;5.53;;;2.60;;
55270;SDS011;41132;47.162;9.470;2023-08-06T00:23:06;5.43;;;2.53;;
55270;SDS011;41132;47.162;9.470;2023-08-06T00:25:32;5.50;;;2.60;;
55270;SDS011;41132;47.162;9.470;2023-08-06T00:27:57;6.05;;;2.30;;
55270;SDS011;41132;47.162;9.470;2023-08-06T00:30:22;5.55;;;2.33;;
55270;SDS011;41132;47.162;9.470;2023-08-06T00:32:48;4.57;;;2.33;;
55270;SDS011;41132;47.162;9.470;2023-08-06T00:35:14;5.30;;;2.45;;
55270;SDS011;41132;47.162;9.470;2023-08-06T00:37:39;4.65;;;2.17;;
55270;SDS011;41132;47.162;9.470;2023-08-06T00:40:05;5.22;;;1.92;;
55270;SDS011;41132;47.162;9.470;2023-08-06T00:42:31;4.82;;;2.45;;
55270;SDS011;41132;47.162;9.470;2023-08-06T00:44:57;4.45;;;2.00;;
55270;SDS011;41132;47.162;9.470;2023-08-06T00:47:22;4.65;;;2.05;;
55270;SDS011;41132;47.162;9.470;2023-08-06T00:49:48;4.57;;;2.20;;
55270;SDS011;41132;47.162;9.470;2023-08-06T00:52:14;4.80;;;2.30;;
55270;SDS011;41132;47.162;9.470;2023-08-06T00:54:39;4.80;;;2.30;;
55270;SDS011;41132;47.162;9.470;2023-08-06T00:57:05;6.47;;;2.08;;
55270;SDS011;41132;47.162;9.470;2023-08-06T00:59:32;4.63;;;2.20;;
55270;SDS011;41132;47.162;9.470;2023-08-06T01:01:58;5.47;;;2.40;;
55270;SDS011;41132;47.162;9.470;2023-08-06T01:04:23;5.03;;;2.40;;
55270;SDS011;41132;47.162;9.470;2023-08-06T01:06:58;4.20;;;2.00;;
55270;SDS011;41132;47.162;9.470;2023-08-06T01:12:21;5.20;;;2.17;;
55270;SDS011;41132;47.162;9.470;2023-08-06T01:17:54;5.28;;;2.45;;
55270;SDS011;41132;47.162;9.470;2023-08-06T01:20:19;5.05;;;2.13;;
55270;SDS011;41132;47.162;9.470;2023-08-06T01:22:45;4.97;;;2.25;;
55270;SDS011;41132;47.162;9.470;2023-08-06T01:25:10;4.93;;;2.35;;
55270;SDS011;41132;47.162;9.470;2023-08-06T01:27:49;5.18;;;2.30;;
55270;SDS011;41132;47.162;9.470;2023-08-06T01:30:24;5.95;;;2.38;;
55270;SDS011;41132;47.162;9.470;2023-08-06T01:32:53;5.10;;;2.20;;
55270;SDS011;41132;47.162;9.470;2023-08-06T01:35:23;4.60;;;2.20;;
55270;SDS011;41132;47.162;9.470;2023-08-06T01:37:51;5.05;;;2.10;;
55270;SDS011;41132;47.162;9.470;2023-08-06T01:40:17;4.15;;;1.83;;
55270;SDS011;41132;47.162;9.470;2023-08-06T01:42:43;4.60;;;2.10;;
55270;SDS011;41132;47.162;9.470;2023-08-06T01:45:08;4.47;;;2.05;;
55270;SDS011;41132;47.162;9.470;2023-08-06T01:47:34;3.95;;;1.73;;
55270;SDS011;41132;47.162;9.470;2023-08-06T01:50:00;4.90;;;2.30;;
55270;SDS011;41132;47.162;9.470;2023-08-06T01:52:25;4.60;;;2.28;;
55270;SDS011;41132;47.162;9.470;2023-08-06T01:54:51;6.80;;;2.10;;
55270;SDS011;41132;47.162;9.470;2023-08-06T01:57:16;4.90;;;1.88;;
55270;SDS011;41132;47.162;9.470;2023-08-06T01:59:42;3.83;;;1.85;;
55270;SDS011;41132;47.162;9.470;2023-08-06T02:02:07;4.13;;;1.60;;
55270;SDS011;41132;47.162;9.470;2023-08-06T02:04:32;4.05;;;1.85;;
55270;SDS011;41132;47.162;9.470;2023-08-06T02:06:58;4.50;;;1.88;;
55270;SDS011;41132;47.162;9.470;2023-08-06T02:09:23;4.60;;;1.95;;
55270;SDS011;41132;47.162;9.470;2023-08-06T02:11:49;3.90;;;1.70;;
55270;SDS011;41132;47.162;9.470;2023-08-06T02:14:14;4.68;;;1.95;;
55270;SDS011;41132;47.162;9.470;2023-08-06T02:16:39;5.28;;;1.92;;
55270;SDS011;41132;47.162;9.470;2023-08-06T02:19:05;3.97;;;1.90;;
55270;SDS011;41132;47.162;9.470;2023-08-06T02:21:30;4.32;;;1.90;;
55270;SDS011;41132;47.162;9.470;2023-08-06T02:23:56;4.25;;;1.90;;
55270;SDS011;41132;47.162;9.470;2023-08-06T02:26:21;4.43;;;1.83;;
55270;SDS011;41132;47.162;9.470;2023-08-06T02:28:46;3.80;;;1.75;;
55270;SDS011;41132;47.162;9.470;2023-08-06T02:31:12;4.18;;;1.70;;
55270;SDS011;41132;47.162;9.470;2023-08-06T02:33:37;4.03;;;1.80;;
55270;SDS011;41132;47.162;9.470;2023-08-06T02:36:03;4.40;;;1.75;;
55270;SDS011;41132;47.162;9.470;2023-08-06T02:38:29;3.17;;;1.60;;
55270;SDS011;41132;47.162;9.470;2023-08-06T02:40:55;3.78;;;1.85;;
55270;SDS011;41132;47.162;9.470;2023-08-06T02:43:20;5.55;;;1.80;;
55270;SDS011;41132;47.162;9.470;2023-08-06T02:45:46;4.50;;;2.00;;
55270;SDS011;41132;47.162;9.470;2023-08-06T02:48:11;4.60;;;1.70;;
55270;SDS011;41132;47.162;9.470;2023-08-06T02:50:40;3.63;;;1.50;;
55270;SDS011;41132;47.162;9.470;2023-08-06T02:53:08;3.47;;;1.60;;
55270;SDS011;41132;47.162;9.470;2023-08-06T02:55:34;3.78;;;1.60;;
55270;SDS011;41132;47.162;9.470;2023-08-06T02:58:00;3.67;;;1.70;;
55270;SDS011;41132;47.162;9.470;2023-08-06T03:00:26;4.95;;;1.67;;
55270;SDS011;41132;47.162;9.470;2023-08-06T03:02:52;6.60;;;2.20;;
55270;SDS011;41132;47.162;9.470;2023-08-06T03:05:18;4.28;;;1.73;;
55270;SDS011;41132;47.162;9.470;2023-08-06T03:07:43;3.88;;;1.60;;
55270;SDS011;41132;47.162;9.470;2023-08-06T03:10:08;3.83;;;1.50;;
55270;SDS011;41132;47.162;9.470;2023-08-06T03:12:34;4.05;;;1.73;;
55270;SDS011;41132;47.162;9.470;2023-08-06T03:14:59;4.32;;;1.92;;
55270;SDS011;41132;47.162;9.470;2023-08-06T03:17:25;3.78;;;1.58;;
55270;SDS011;41132;47.162;9.470;2023-08-06T03:19:50;4.53;;;1.80;;
55270;SDS011;41132;47.162;9.470;2023-08-06T03:22:16;3.42;;;1.63;;
55270;SDS011;41132;47.162;9.470;2023-08-06T03:24:41;3.97;;;1.65;;
55270;SDS011;41132;47.162;9.470;2023-08-06T03:27:06;4.38;;;1.80;;
55270;SDS011;41132;47.162;9.470;2023-08-06T03:29:32;3.60;;;1.52;;
55270;SDS011;41132;47.162;9.470;2023-08-06T03:31:57;4.47;;;1.98;;
55270;SDS011;41132;47.162;9.470;2023-08-06T03:34:22;3.53;;;1.60;;
55270;SDS011;41132;47.162;9.470;2023-08-06T03:36:48;4.13;;;1.83;;
55270;SDS011;41132;47.162;9.470;2023-08-06T03:39:13;4.15;;;1.90;;
55270;SDS011;41132;47.162;9.470;2023-08-06T03:41:39;3.35;;;1.60;;
55270;SDS011;41132;47.162;9.470;2023-08-06T03:44:04;4.30;;;1.90;;
55270;SDS011;41132;47.162;9.470;2023-08-06T03:46:30;3.72;;;1.52;;
55270;SDS011;41132;47.162;9.470;2023-08-06T03:48:58;4.20;;;1.70;;
55270;SDS011;41132;47.162;9.470;2023-08-06T03:51:24;3.70;;;1.80;;
55270;SDS011;41132;47.162;9.470;2023-08-06T03:53:50;4.35;;;1.70;;
55270;SDS011;41132;47.162;9.470;2023-08-06T03:56:15;3.83;;;1.80;;
55270;SDS011;41132;47.162;9.470;2023-08-06T03:58:40;3.65;;;1.55;;
55270;SDS011;41132;47.162;9.470;2023-08-06T04:01:06;6.32;;;1.63;;
55270;SDS011;41132;47.162;9.470;2023-08-06T04:03:31;4.72;;;2.15;;
55270;SDS011;41132;47.162;9.470;2023-08-06T04:05:56;4.07;;;1.70;;
55270;SDS011;41132;47.162;9.470;2023-08-06T04:08:22;6.88;;;1.67;;
55270;SDS011;41132;47.162;9.470;2023-08-06T04:10:53;3.22;;;1.50;;
55270;SDS011;41132;47.162;9.470;2023-08-06T04:13:19;4.30;;;1.70;;
55270;SDS011;41132;47.162;9.470;2023-08-06T04:15:45;6.15;;;1.98;;
55270;SDS011;41132;47.162;9.470;2023-08-06T04:18:10;4.28;;;1.60;;
55270;SDS011;41132;47.162;9.470;2023-08-06T04:20:45;3.63;;;1.50;;
55270;SDS011;41132;47.162;9.470;2023-08-06T04:23:11;4.88;;;2.22;;
55270;SDS011;41132;47.162;9.470;2023-08-06T04:25:37;2.80;;;1.40;;
55270;SDS011;41132;47.162;9.470;2023-08-06T04:28:02;3.40;;;1.60;;
55270;SDS011;41132;47.162;9.470;2023-08-06T04:30:28;4.65;;;1.80;;
55270;SDS011;41132;47.162;9.470;2023-08-06T04:32:53;4.60;;;1.80;;
55270;SDS011;41132;47.162;9.470;2023-08-06T04:35:19;4.63;;;1.50;;
55270;SDS011;41132;47.162;9.470;2023-08-06T04:37:44;4.57;;;1.83;;
55270;SDS011;41132;47.162;9.470;2023-08-06T04:40:10;6.90;;;1.90;;
55270;SDS011;41132;47.162;9.470;2023-08-06T04:42:35;4.20;;;1.85;;
55270;SDS011;41132;47.162;9.470;2023-08-06T04:45:01;6.47;;;1.60;;
55270;SDS011;41132;47.162;9.470;2023-08-06T04:47:27;3.17;;;1.42;;
55270;SDS011;41132;47.162;9.470;2023-08-06T04:49:52;4.95;;;1.88;;
55270;SDS011;41132;47.162;9.470;2023-08-06T04:52:18;5.60;;;1.80;;
55270;SDS011;41132;47.162;9.470;2023-08-06T04:54:43;3.78;;;1.70;;
55270;SDS011;41132;47.162;9.470;2023-08-06T04:57:09;3.55;;;1.70;;
55270;SDS011;41132;47.162;9.470;2023-08-06T04:59:34;3.85;;;1.67;;
55270;SDS011;41132;47.162;9.470;2023-08-06T05:02:00;3.63;;;1.63;;
55270;SDS011;41132;47.162;9.470;2023-08-06T05:04:25;3.85;;;1.75;;
55270;SDS011;41132;47.162;9.470;2023-08-06T05:06:51;3.42;;;1.60;;
55270;SDS011;41132;47.162;9.470;2023-08-06T05:09:16;8.50;;;1.60;;
55270;SDS011;41132;47.162;9.470;2023-08-06T05:11:41;3.15;;;1.38;;
55270;SDS011;41132;47.162;9.470;2023-08-06T05:14:07;3.25;;;1.60;;
55270;SDS011;41132;47.162;9.470;2023-08-06T05:16:32;5.88;;;1.83;;
55270;SDS011;41132;47.162;9.470;2023-08-06T05:18:57;4.78;;;1.75;;
55270;SDS011;41132;47.162;9.470;2023-08-06T05:21:23;7.47;;;1.85;;
55270;SDS011;41132;47.162;9.470;2023-08-06T05:23:48;5.30;;;1.98;;
55270;SDS011;41132;47.162;9.470;2023-08-06T05:26:13;5.00;;;1.80;;
55270;SDS011;41132;47.162;9.470;2023-08-06T05:28:41;4.38;;;1.75;;
55270;SDS011;41132;47.162;9.470;2023-08-06T05:31:06;4.88;;;1.70;;
55270;SDS011;41132;47.162;9.470;2023-08-06T05:33:31;7.20;;;1.70;;
55270;SDS011;41132;47.162;9.470;2023-08-06T05:35:57;3.85;;;1.60;;
55270;SDS011;41132;47.162;9.470;2023-08-06T05:38:23;4.85;;;1.92;;
55270;SDS011;41132;47.162;9.470;2023-08-06T05:40:48;5.13;;;2.05;;
55270;SDS011;41132;47.162;9.470;2023-08-06T05:43:14;4.80;;;1.88;;
55270;SDS011;41132;47.162;9.470;2023-08-06T05:45:39;5.18;;;2.08;;
55270;SDS011;41132;47.162;9.470;2023-08-06T05:48:08;5.68;;;2.00;;
55270;SDS011;41132;47.162;9.470;2023-08-06T05:50:34;4.10;;;1.63;;
55270;SDS011;41132;47.162;9.470;2023-08-06T05:52:59;5.20;;;1.83;;
55270;SDS011;41132;47.162;9.470;2023-08-06T05:55:24;5.35;;;2.00;;
55270;SDS011;41132;47.162;9.470;2023-08-06T05:57:50;4.65;;;2.00;;
55270;SDS011;41132;47.162;9.470;2023-08-06T06:00:17;5.22;;;1.98;;
55270;SDS011;41132;47.162;9.470;2023-08-06T06:02:43;5.82;;;2.58;;
55270;SDS011;41132;47.162;9.470;2023-08-06T06:05:09;4.50;;;2.17;;
55270;SDS011;41132;47.162;9.470;2023-08-06T06:07:34;4.97;;;2.42;;
55270;SDS011;41132;47.162;9.470;2023-08-06T06:10:00;4.82;;;2.10;;
55270;SDS011;41132;47.162;9.470;2023-08-06T06:12:25;6.45;;;2.10;;
55270;SDS011;41132;47.162;9.470;2023-08-06T06:14:51;4.30;;;1.70;;
55270;SDS011;41132;47.162;9.470;2023-08-06T06:17:16;3.95;;;1.75;;
55270;SDS011;41132;47.162;9.470;2023-08-06T06:19:42;7.32;;;2.35;;
55270;SDS011;41132;47.162;9.470;2023-08-06T06:22:07;5.55;;;1.63;;
55270;SDS011;41132;47.162;9.470;2023-08-06T06:24:32;4.47;;;1.85;;
55270;SDS011;41132;47.162;9.470;2023-08-06T06:26:58;4.40;;;1.90;;
55270;SDS011;41132;47.162;9.470;2023-08-06T06:29:24;4.15;;;1.75;;
55270;SDS011;41132;47.162;9.470;2023-08-06T06:31:49;4.20;;;1.85;;
55270;SDS011;41132;47.162;9.470;2023-08-06T06:34:14;5.80;;;2.10;;
55270;SDS011;41132;47.162;9.470;2023-08-06T06:36:40;6.30;;;2.22;;
55270;SDS011;41132;47.162;9.470;2023-08-06T06:39:05;5.18;;;2.30;;
55270;SDS011;41132;47.162;9.470;2023-08-06T06:41:30;7.30;;;2.47;;
55270;SDS011;41132;47.162;9.470;2023-08-06T06:43:57;5.18;;;2.03;;
55270;SDS011;41132;47.162;9.470;2023-08-06T06:46:23;5.43;;;1.90;;
55270;SDS011;41132;47.162;9.470;2023-08-06T06:48:48;4.30;;;1.90;;
55270;SDS011;41132;47.162;9.470;2023-08-06T06:51:14;4.45;;;2.00;;
55270;SDS011;41132;47.162;9.470;2023-08-06T06:53:39;5.40;;;2.10;;
55270;SDS011;41132;47.162;9.470;2023-08-06T06:56:05;4.60;;;1.92;;
55270;SDS011;41132;47.162;9.470;2023-08-06T06:58:31;5.97;;;2.17;;
55270;SDS011;41132;47.162;9.470;2023-08-06T07:00:57;5.32;;;2.42;;
55270;SDS011;41132;47.162;9.470;2023-08-06T07:03:22;5.00;;;2.08;;
55270;SDS011;41132;47.162;9.470;2023-08-06T07:05:48;5.00;;;2.60;;
55270;SDS011;41132;47.162;9.470;2023-08-06T07:08:14;4.97;;;2.03;;
55270;SDS011;41132;47.162;9.470;2023-08-06T07:10:40;4.63;;;1.95;;
55270;SDS011;41132;47.162;9.470;2023-08-06T07:13:07;4.00;;;1.75;;
55270;SDS011;41132;47.162;9.470;2023-08-06T07:15:33;4.93;;;2.00;;
55270;SDS011;41132;47.162;9.470;2023-08-06T07:17:58;5.13;;;2.03;;
55270;SDS011;41132;47.162;9.470;2023-08-06T07:20:23;5.45;;;2.33;;
55270;SDS011;41132;47.162;9.470;2023-08-06T07:22:49;4.88;;;2.33;;
55270;SDS011;41132;47.162;9.470;2023-08-06T07:25:15;6.40;;;3.13;;
55270;SDS011;41132;47.162;9.470;2023-08-06T07:27:41;5.00;;;2.53;;
55270;SDS011;41132;47.162;9.470;2023-08-06T07:30:07;4.57;;;2.00;;
55270;SDS011;41132;47.162;9.470;2023-08-06T07:32:33;5.07;;;2.08;;
55270;SDS011;41132;47.162;9.470;2023-08-06T07:34:58;7.68;;;3.50;;
55270;SDS011;41132;47.162;9.470;2023-08-06T07:37:25;5.00;;;2.20;;
55270;SDS011;41132;47.162;9.470;2023-08-06T07:39:53;4.70;;;2.00;;
55270;SDS011;41132;47.162;9.470;2023-08-06T07:42:19;4.18;;;2.03;;
55270;SDS011;41132;47.162;9.470;2023-08-06T07:44:49;6.35;;;1.85;;
55270;SDS011;41132;47.162;9.470;2023-08-06T07:47:17;5.60;;;2.80;;
55270;SDS011;41132;47.162;9.470;2023-08-06T07:49:42;5.10;;;2.38;;
55270;SDS011;41132;47.162;9.470;2023-08-06T07:52:07;5.75;;;2.30;;
55270;SDS011;41132;47.162;9.470;2023-08-06T07:54:33;5.55;;;2.42;;
55270;SDS011;41132;47.162;9.470;2023-08-06T07:56:58;3.80;;;1.60;;
55270;SDS011;41132;47.162;9.470;2023-08-06T07:59:23;2.63;;;1.25;;
55270;SDS011;41132;47.162;9.470;2023-08-06T08:01:49;3.88;;;1.40;;
55270;SDS011;41132;47.162;9.470;2023-08-06T08:04:14;4.70;;;1.90;;
55270;SDS011;41132;47.162;9.470;2023-08-06T08:06:39;4.20;;;1.80;;
55270;SDS011;41132;47.162;9.470;2023-08-06T08:09:05;4.07;;;1.50;;
55270;SDS011;41132;47.162;9.470;2023-08-06T08:11:30;2.63;;;1.08;;
55270;SDS011;41132;47.162;9.470;2023-08-06T08:13:55;2.72;;;1.10;;
55270;SDS011;41132;47.162;9.470;2023-08-06T08:16:21;2.03;;;1.05;;
55270;SDS011;41132;47.162;9.470;2023-08-06T08:18:46;2.63;;;1.20;;
55270;SDS011;41132;47.162;9.470;2023-08-06T08:21:12;2.67;;;1.05;;
55270;SDS011;41132;47.162;9.470;2023-08-06T08:23:37;2.47;;;1.00;;
55270;SDS011;41132;47.162;9.470;2023-08-06T08:26:04;2.97;;;1.10;;
55270;SDS011;41132;47.162;9.470;2023-08-06T08:28:29;2.15;;;0.80;;
55270;SDS011;41132;47.162;9.470;2023-08-06T08:30:55;2.40;;;1.00;;
55270;SDS011;41132;47.162;9.470;2023-08-06T08:33:21;3.42;;;1.00;;
55270;SDS011;41132;47.162;9.470;2023-08-06T08:35:46;2.88;;;1.10;;
55270;SDS011;41132;47.162;9.470;2023-08-06T08:38:12;3.00;;;1.00;;
55270;SDS011;41132;47.162;9.470;2023-08-06T08:40:39;3.47;;;0.90;;
55270;SDS011;41132;47.162;9.470;2023-08-06T08:43:11;1.17;;;0.77;;
55270;SDS011;41132;47.162;9.470;2023-08-06T08:45:39;2.75;;;0.90;;
55270;SDS011;41132;47.162;9.470;2023-08-06T08:48:05;2.60;;;0.95;;
55270;SDS011;41132;47.162;9.470;2023-08-06T08:50:31;2.92;;;1.02;;
55270;SDS011;41132;47.162;9.470;2023-08-06T08:52:57;1.25;;;0.80;;
55270;SDS011;41132;47.162;9.470;2023-08-06T08:55:22;1.50;;;0.82;;
55270;SDS011;41132;47.162;9.470;2023-08-06T08:57:48;2.55;;;0.90;;
55270;SDS011;41132;47.162;9.470;2023-08-06T09:00:14;2.00;;;0.85;;
55270;SDS011;41132;47.162;9.470;2023-08-06T09:02:39;2.03;;;1.00;;
55270;SDS011;41132;47.162;9.470;2023-08-06T09:05:07;2.58;;;1.00;;
55270;SDS011;41132;47.162;9.470;2023-08-06T09:07:44;2.63;;;1.00;;
55270;SDS011;41132;47.162;9.470;2023-08-06T09:10:14;1.98;;;0.90;;
55270;SDS011;41132;47.162;9.470;2023-08-06T09:12:42;2.08;;;1.02;;
55270;SDS011;41132;47.162;9.470;2023-08-06T09:15:09;1.70;;;0.88;;
55270;SDS011;41132;47.162;9.470;2023-08-06T09:17:35;1.27;;;0.77;;
55270;SDS011;41132;47.162;9.470;2023-08-06T09:20:08;2.42;;;0.95;;
55270;SDS011;41132;47.162;9.470;2023-08-06T09:22:35;2.00;;;1.00;;
55270;SDS011;41132;47.162;9.470;2023-08-06T09:25:00;4.55;;;1.20;;
55270;SDS011;41132;47.162;9.470;2023-08-06T09:27:26;4.10;;;1.65;;
55270;SDS011;41132;47.162;9.470;2023-08-06T09:29:51;2.90;;;1.10;;
55270;SDS011;41132;47.162;9.470;2023-08-06T09:32:16;2.38;;;0.93;;
55270;SDS011;41132;47.162;9.470;2023-08-06T09:34:42;0.82;;;0.70;;
55270;SDS011;41132;47.162;9.470;2023-08-06T09:37:08;1.52;;;0.90;;
55270;SDS011;41132;47.162;9.470;2023-08-06T09:39:35;1.90;;;0.80;;
55270;SDS011;41132;47.162;9.470;2023-08-06T09:42:01;0.40;;;0.40;;
55270;SDS011;41132;47.162;9.470;2023-08-06T09:44:28;2.17;;;0.70;;
55270;SDS011;41132;47.162;9.470;2023-08-06T09:46:55;2.05;;;0.60;;
55270;SDS011;41132;47.162;9.470;2023-08-06T09:49:24;0.80;;;0.80;;
55270;SDS011;41132;47.162;9.470;2023-08-06T09:51:52;0.93;;;0.77;;
55270;SDS011;41132;47.162;9.470;2023-08-06T09:54:20;0.70;;;0.60;;
55270;SDS011;41132;47.162;9.470;2023-08-06T09:56:47;0.85;;;0.60;;
55270;SDS011;41132;47.162;9.470;2023-08-06T09:59:13;1.40;;;0.75;;
55270;SDS011;41132;47.162;9.470;2023-08-06T10:01:40;0.88;;;0.70;;
55270;SDS011;41132;47.162;9.470;2023-08-06T10:04:06;0.85;;;0.75;;
55270;SDS011;41132;47.162;9.470;2023-08-06T10:06:33;1.33;;;0.60;;
55270;SDS011;41132;47.162;9.470;2023-08-06T10:09:01;2.20;;;0.80;;
55270;SDS011;41132;47.162;9.470;2023-08-06T10:11:27;0.85;;;0.60;;
55270;SDS011;41132;47.162;9.470;2023-08-06T10:13:58;0.73;;;0.50;;
55270;SDS011;41132;47.162;9.470;2023-08-06T10:16:29;0.60;;;0.60;;
55270;SDS011;41132;47.162;9.470;2023-08-06T10:18:56;0.70;;;0.60;;
55270;SDS011;41132;47.162;9.470;2023-08-06T10:21:23;1.02;;;0.60;;
55270;SDS011;41132;47.162;9.470;2023-08-06T10:23:55;1.00;;;0.70;;
55270;SDS011;41132;47.162;9.470;2023-08-06T10:26:24;0.82;;;0.50;;
55270;SDS011;41132;47.162;9.470;2023-08-06T10:28:53;0.60;;;0.60;;
55270;SDS011;41132;47.162;9.470;2023-08-06T10:31:18;2.15;;;0.88;;
55270;SDS011;41132;47.162;9.470;2023-08-06T10:33:45;0.63;;;0.60;;
55270;SDS011;41132;47.162;9.470;2023-08-06T10:36:11;1.00;;;0.50;;
55270;SDS011;41132;47.162;9.470;2023-08-06T10:38:48;0.95;;;0.68;;
55270;SDS011;41132;47.162;9.470;2023-08-06T10:41:27;0.75;;;0.60;;
55270;SDS011;41132;47.162;9.470;2023-08-06T10:44:14;0.50;;;0.50;;
55270;SDS011;41132;47.162;9.470;2023-08-06T10:46:39;1.40;;;0.50;;
55270;SDS011;41132;47.162;9.470;2023-08-06T10:49:04;1.15;;;0.60;;
55270;SDS011;41132;47.162;9.470;2023-08-06T10:51:32;0.70;;;0.70;;
55270;SDS011;41132;47.162;9.470;2023-08-06T10:53:57;1.58;;;0.50;;
55270;SDS011;41132;47.162;9.470;2023-08-06T10:56:24;1.17;;;0.65;;
55270;SDS011;41132;47.162;9.470;2023-08-06T10:58:54;0.43;;;0.43;;
55270;SDS011;41132;47.162;9.470;2023-08-06T11:01:24;0.93;;;0.50;;
55270;SDS011;41132;47.162;9.470;2023-08-06T11:03:55;1.40;;;0.60;;
55270;SDS011;41132;47.162;9.470;2023-08-06T11:06:22;0.55;;;0.55;;
55270;SDS011;41132;47.162;9.470;2023-08-06T11:08:54;1.13;;;0.63;;
55270;SDS011;41132;47.162;9.470;2023-08-06T11:11:20;2.22;;;0.70;;
55270;SDS011;41132;47.162;9.470;2023-08-06T11:13:48;0.50;;;0.50;;
55270;SDS011;41132;47.162;9.470;2023-08-06T11:16:18;0.50;;;0.50;;
55270;SDS011;41132;47.162;9.470;2023-08-06T11:18:45;1.00;;;0.50;;
55270;SDS011;41132;47.162;9.470;2023-08-06T11:21:12;1.77;;;0.70;;
55270;SDS011;41132;47.162;9.470;2023-08-06T11:23:38;1.95;;;0.98;;
55270;SDS011;41132;47.162;9.470;2023-08-06T11:26:05;1.38;;;0.70;;
55270;SDS011;41132;47.162;9.470;2023-08-06T11:28:30;1.58;;;0.82;;
55270;SDS011;41132;47.162;9.470;2023-08-06T11:30:56;0.50;;;0.50;;
55270;SDS011;41132;47.162;9.470;2023-08-06T11:33:26;0.50;;;0.50;;
55270;SDS011;41132;47.162;9.470;2023-08-06T11:35:52;0.60;;;0.60;;
55270;SDS011;41132;47.162;9.470;2023-08-06T11:38:21;0.50;;;0.50;;
55270;SDS011;41132;47.162;9.470;2023-08-06T11:40:47;3.80;;;1.90;;
55270;SDS011;41132;47.162;9.470;2023-08-06T11:43:12;0.50;;;0.50;;
55270;SDS011;41132;47.162;9.470;2023-08-06T11:45:39;0.50;;;0.50;;
55270;SDS011;41132;47.162;9.470;2023-08-06T11:48:05;0.50;;;0.50;;
55270;SDS011;41132;47.162;9.470;2023-08-06T11:50:31;0.50;;;0.50;;
55270;SDS011;41132;47.162;9.470;2023-08-06T11:53:02;0.75;;;0.50;;
55270;SDS011;41132;47.162;9.470;2023-08-06T11:55:28;1.30;;;0.55;;
55270;SDS011;41132;47.162;9.470;2023-08-06T11:57:54;0.70;;;0.70;;
55270;SDS011;41132;47.162;9.470;2023-08-06T12:00:20;0.60;;;0.60;;
55270;SDS011;41132;47.162;9.470;2023-08-06T12:02:48;0.88;;;0.70;;
55270;SDS011;41132;47.162;9.470;2023-08-06T12:05:16;0.50;;;0.50;;
55270;SDS011;41132;47.162;9.470;2023-08-06T12:07:47;1.98;;;0.70;;
55270;SDS011;41132;47.162;9.470;2023-08-06T12:10:14;1.80;;;0.70;;
55270;SDS011;41132;47.162;9.470;2023-08-06T12:12:40;2.30;;;0.75;;
55270;SDS011;41132;47.162;9.470;2023-08-06T12:15:06;1.17;;;0.80;;
55270;SDS011;41132;47.162;9.470;2023-08-06T12:17:33;0.52;;;0.52;;
55270;SDS011;41132;47.162;9.470;2023-08-06T12:19:58;0.63;;;0.60;;
55270;SDS011;41132;47.162;9.470;2023-08-06T12:22:24;0.63;;;0.63;;
55270;SDS011;41132;47.162;9.470;2023-08-06T12:24:50;1.15;;;0.70;;
55270;SDS011;41132;47.162;9.470;2023-08-06T12:27:15;0.85;;;0.60;;
55270;SDS011;41132;47.162;9.470;2023-08-06T12:29:45;2.35;;;1.13;;
55270;SDS011;41132;47.162;9.470;2023-08-06T12:32:12;1.23;;;0.70;;
55270;SDS011;41132;47.162;9.470;2023-08-06T12:34:38;0.65;;;0.65;;
55270;SDS011;41132;47.162;9.470;2023-08-06T12:37:05;0.75;;;0.70;;
55270;SDS011;41132;47.162;9.470;2023-08-06T12:39:31;0.60;;;0.60;;
55270;SDS011;41132;47.162;9.470;2023-08-06T12:41:57;0.60;;;0.60;;
55270;SDS011;41132;47.162;9.470;2023-08-06T12:44:23;2.97;;;0.80;;
55270;SDS011;41132;47.162;9.470;2023-08-06T12:46:50;0.65;;;0.50;;
55270;SDS011;41132;47.162;9.470;2023-08-06T12:49:16;1.85;;;0.70;;
55270;SDS011;41132;47.162;9.470;2023-08-06T12:51:42;2.20;;;0.77;;
55270;SDS011;41132;47.162;9.470;2023-08-06T12:54:08;0.75;;;0.70;;
55270;SDS011;41132;47.162;9.470;2023-08-06T12:56:33;0.50;;;0.50;;
55270;SDS011;41132;47.162;9.470;2023-08-06T12:58:59;0.65;;;0.60;;
55270;SDS011;41132;47.162;9.470;2023-08-06T13:01:24;2.35;;;0.60;;
55270;SDS011;41132;47.162;9.470;2023-08-06T13:03:50;0.55;;;0.55;;
55270;SDS011;41132;47.162;9.470;2023-08-06T13:06:15;0.52;;;0.50;;
55270;SDS011;41132;47.162;9.470;2023-08-06T13:08:40;0.73;;;0.50;;
55270;SDS011;41132;47.162;9.470;2023-08-06T13:11:06;0.65;;;0.60;;
55270;SDS011;41132;47.162;9.470;2023-08-06T13:13:31;1.38;;;0.82;;
55270;SDS011;41132;47.162;9.470;2023-08-06T13:15:57;1.27;;;0.63;;
55270;SDS011;41132;47.162;9.470;2023-08-06T13:18:22;1.02;;;0.73;;
55270;SDS011;41132;47.162;9.470;2023-08-06T13:20:47;1.20;;;0.77;;
55270;SDS011;41132;47.162;9.470;2023-08-06T13:23:14;1.67;;;0.68;;
55270;SDS011;41132;47.162;9.470;2023-08-06T13:25:41;0.80;;;0.77;;
55270;SDS011;41132;47.162;9.470;2023-08-06T13:28:07;2.42;;;0.80;;
55270;SDS011;41132;47.162;9.470;2023-08-06T13:30:32;0.80;;;0.70;;
55270;SDS011;41132;47.162;9.470;2023-08-06T13:33:00;2.35;;;1.05;;
55270;SDS011;41132;47.162;9.470;2023-08-06T13:35:26;0.98;;;0.77;;
55270;SDS011;41132;47.162;9.470;2023-08-06T13:37:51;1.17;;;0.63;;
55270;SDS011;41132;47.162;9.470;2023-08-06T13:40:17;0.70;;;0.70;;
55270;SDS011;41132;47.162;9.470;2023-08-06T13:42:42;0.88;;;0.70;;
55270;SDS011;41132;47.162;9.470;2023-08-06T13:45:08;1.63;;;0.88;;
55270;SDS011;41132;47.162;9.470;2023-08-06T13:47:34;1.63;;;0.80;;
55270;SDS011;41132;47.162;9.470;2023-08-06T13:49:59;0.80;;;0.80;;
55270;SDS011;41132;47.162;9.470;2023-08-06T13:52:25;0.73;;;0.70;;
55270;SDS011;41132;47.162;9.470;2023-08-06T13:54:52;1.02;;;0.85;;
55270;SDS011;41132;47.162;9.470;2023-08-06T13:57:18;0.75;;;0.55;;
55270;SDS011;41132;47.162;9.470;2023-08-06T13:59:43;0.90;;;0.70;;
55270;SDS011;41132;47.162;9.470;2023-08-06T14:02:09;0.98;;;0.70;;
55270;SDS011;41132;47.162;9.470;2023-08-06T14:04:35;1.23;;;0.80;;
55270;SDS011;41132;47.162;9.470;2023-08-06T14:07:02;1.20;;;0.80;;
55270;SDS011;41132;47.162;9.470;2023-08-06T14:09:28;0.70;;;0.63;;
55270;SDS011;41132;47.162;9.470;2023-08-06T14:11:53;2.60;;;0.60;;
55270;SDS011;41132;47.162;9.470;2023-08-06T14:14:19;0.90;;;0.80;;
55270;SDS011;41132;47.162;9.470;2023-08-06T14:16:47;1.02;;;0.68;;
55270;SDS011;41132;47.162;9.470;2023-08-06T14:19:12;2.75;;;0.70;;
55270;SDS011;41132;47.162;9.470;2023-08-06T14:21:38;0.93;;;0.68;;
55270;SDS011;41132;47.162;9.470;2023-08-06T14:24:03;0.77;;;0.63;;
55270;SDS011;41132;47.162;9.470;2023-08-06T14:26:29;1.45;;;0.80;;
55270;SDS011;41132;47.162;9.470;2023-08-06T14:28:54;0.60;;;0.60;;
55270;SDS011;41132;47.162;9.470;2023-08-06T14:31:20;0.80;;;0.65;;
55270;SDS011;41132;47.162;9.470;2023-08-06T14:33:46;1.52;;;0.70;;
55270;SDS011;41132;47.162;9.470;2023-08-06T14:36:11;0.88;;;0.70;;
55270;SDS011;41132;47.162;9.470;2023-08-06T14:38:38;0.70;;;0.60;;
55270;SDS011;41132;47.162;9.470;2023-08-06T14:41:03;0.77;;;0.55;;
55270;SDS011;41132;47.162;9.470;2023-08-06T14:43:28;0.77;;;0.70;;
55270;SDS011;41132;47.162;9.470;2023-08-06T14:45:54;0.50;;;0.50;;
55270;SDS011;41132;47.162;9.470;2023-08-06T14:48:19;0.60;;;0.60;;